createdAt,value
2017-09-10T00:00:05.001Z,93.35
2017-09-10T00:02:40.284Z,93.25
2017-09-10T00:05:14.865Z,93.21
2017-09-10T00:07:50.236Z,93.65
2017-09-10T00:10:25.069Z,93.95
2017-09-10T00:13:00.253Z,93.59
2017-09-10T00:15:34.718Z,93.04
2017-09-10T00:18:10.393Z,92.68
2017-09-10T00:20:44.875Z,92.49
2017-09-10T00:23:19.829Z,92.40
2017-09-10T00:25:54.779Z,92.54
2017-09-10T00:28:29.612Z,92.48
2017-09-10T00:31:04.658Z,92.27
2017-09-10T00:33:39.484Z,92.19
2017-09-10T00:36:14.173Z,92.36
2017-09-10T00:38:49.025Z,92.83
2017-09-10T00:41:23.852Z,93.59
2017-09-10T00:43:58.880Z,93.70
2017-09-10T00:46:33.935Z,93.87
2017-09-10T00:49:08.984Z,93.80
2017-09-10T00:51:43.648Z,93.70
2017-09-10T00:54:17.742Z,93.53
2017-09-10T00:56:53.096Z,93.26
2017-09-10T00:59:27.797Z,92.98
2017-09-10T01:02:02.452Z,92.96
2017-09-10T01:04:37.337Z,93.38
2017-09-10T01:07:12.155Z,93.67
2017-09-10T01:09:47.108Z,93.66
2017-09-10T01:12:21.811Z,93.68
2017-09-10T01:14:56.815Z,93.55
2017-09-10T01:17:31.853Z,93.54
2017-09-10T01:20:06.259Z,93.86
2017-09-10T01:22:41.031Z,94.51
2017-09-10T01:25:16.035Z,94.89
2017-09-10T01:27:51.107Z,94.75
2017-09-10T01:30:25.531Z,94.45
2017-09-10T01:33:00.846Z,94.33
2017-09-10T01:35:35.528Z,94.17
2017-09-10T01:38:10.852Z,94.34
2017-09-10T01:40:45.396Z,94.53
2017-09-10T01:43:20.569Z,95.03
2017-09-10T01:45:54.993Z,94.78
2017-09-10T01:48:29.887Z,95.06
2017-09-10T01:51:04.619Z,95.39
2017-09-10T01:53:39.771Z,95.33
2017-09-10T01:56:14.609Z,95.04
2017-09-10T01:58:49.398Z,94.69
2017-09-10T02:01:24.020Z,94.31
2017-09-10T02:03:58.964Z,93.92
2017-09-10T02:06:34.019Z,93.68
2017-09-10T02:09:08.845Z,93.37
2017-09-10T02:11:44.041Z,93.03
2017-09-10T02:14:19.215Z,92.83
2017-09-10T02:16:54.073Z,92.75
2017-09-10T02:19:28.961Z,92.52
2017-09-10T02:22:03.704Z,92.40
2017-09-10T02:24:38.536Z,92.62
2017-09-10T02:27:13.085Z,92.69
2017-09-10T02:29:47.987Z,92.82
2017-09-10T02:32:22.794Z,93.05
2017-09-10T02:34:57.948Z,93.00
2017-09-10T02:37:32.804Z,93.30
2017-09-10T02:40:07.710Z,93.55
2017-09-10T02:42:42.761Z,93.71
2017-09-10T02:45:17.665Z,93.74
2017-09-10T02:47:52.662Z,93.66
2017-09-10T02:50:27.597Z,93.40
2017-09-10T02:53:02.501Z,93.06
2017-09-10T02:55:37.219Z,92.75
2017-09-10T02:58:12.175Z,92.38
2017-09-10T03:00:46.984Z,92.13
2017-09-10T03:03:21.813Z,92.27
2017-09-10T03:05:56.565Z,93.55
2017-09-10T03:08:31.396Z,94.75
2017-09-10T03:11:06.505Z,95.66
2017-09-10T03:13:41.673Z,96.28
2017-09-10T03:16:16.780Z,96.04
2017-09-10T03:18:51.627Z,96.25
2017-09-10T03:21:26.361Z,96.36
2017-09-10T03:24:01.292Z,96.71
2017-09-10T03:26:36.041Z,96.79
2017-09-10T03:29:11.064Z,96.81
2017-09-10T03:31:45.876Z,96.87
2017-09-10T03:34:20.648Z,96.73
2017-09-10T03:36:55.703Z,96.60
2017-09-10T03:39:30.481Z,96.74
2017-09-10T03:42:05.608Z,96.75
2017-09-10T03:44:40.477Z,97.37
2017-09-10T03:47:15.509Z,97.61
2017-09-10T03:49:50.055Z,97.55
2017-09-10T03:52:24.974Z,97.33
2017-09-10T03:54:59.980Z,97.20
2017-09-10T03:57:34.649Z,97.03
2017-09-10T04:00:09.519Z,96.83
2017-09-10T04:02:44.765Z,96.99
2017-09-10T04:05:19.496Z,97.04
2017-09-10T04:07:54.711Z,97.12
2017-09-10T04:10:29.431Z,97.33
2017-09-10T04:13:04.460Z,97.47
2017-09-10T04:15:39.172Z,97.39
2017-09-10T04:18:13.669Z,97.11
2017-09-10T04:20:48.644Z,96.98
2017-09-10T04:23:22.868Z,96.91
2017-09-10T04:25:58.239Z,96.84
2017-09-10T04:28:32.973Z,97.01
2017-09-10T04:31:07.378Z,96.97
2017-09-10T04:33:42.525Z,96.98
2017-09-10T04:36:17.468Z,97.04
2017-09-10T04:38:52.499Z,97.10
2017-09-10T04:41:27.327Z,97.10
2017-09-10T04:44:01.992Z,97.20
2017-09-10T04:46:38.123Z,97.47
2017-09-10T04:49:12.849Z,97.40
2017-09-10T04:51:47.801Z,97.79
2017-09-10T04:54:22.672Z,97.67
2017-09-10T04:56:57.529Z,97.74
2017-09-10T04:59:32.635Z,97.88
2017-09-10T05:02:07.292Z,97.97
2017-09-10T05:04:41.933Z,98.05
2017-09-10T05:07:16.595Z,97.96
2017-09-10T05:09:51.924Z,98.10
2017-09-10T05:12:26.963Z,98.02
2017-09-10T05:15:01.653Z,98.12
2017-09-10T05:17:36.547Z,98.37
2017-09-10T05:20:11.131Z,98.45
2017-09-10T05:22:46.332Z,98.15
2017-09-10T05:25:20.663Z,98.11
2017-09-10T05:27:55.660Z,98.17
2017-09-10T05:30:30.024Z,98.10
2017-09-10T05:33:05.169Z,97.81
2017-09-10T05:35:40.409Z,97.89
2017-09-10T05:38:15.653Z,97.77
2017-09-10T05:40:50.827Z,97.57
2017-09-10T05:43:25.212Z,97.64
2017-09-10T05:46:00.080Z,97.79
2017-09-10T05:48:34.926Z,97.79
2017-09-10T05:51:09.635Z,97.79
2017-09-10T05:53:44.472Z,97.74
2017-09-10T05:56:19.303Z,97.71
2017-09-10T05:58:54.260Z,97.76
2017-09-10T06:01:29.100Z,97.87
2017-09-10T06:04:04.335Z,97.96
2017-09-10T06:06:38.972Z,97.45
2017-09-10T06:09:14.242Z,97.42
2017-09-10T06:11:50.129Z,97.14
2017-09-10T06:14:25.080Z,96.76
2017-09-10T06:16:59.608Z,96.65
2017-09-10T06:19:34.508Z,97.10
2017-09-10T06:22:09.248Z,96.82
2017-09-10T06:24:44.427Z,96.97
2017-09-10T06:27:19.068Z,96.61
2017-09-10T06:29:55.522Z,96.42
2017-09-10T06:32:29.933Z,96.36
2017-09-10T06:35:04.396Z,95.72
2017-09-10T06:37:39.627Z,95.15
2017-09-10T06:40:14.476Z,95.76
2017-09-10T06:42:49.319Z,95.92
2017-09-10T06:45:24.220Z,95.98
2017-09-10T06:47:58.873Z,95.98
2017-09-10T06:50:33.810Z,96.14
2017-09-10T06:53:08.581Z,96.41
2017-09-10T06:55:43.313Z,96.64
2017-09-10T06:58:19.161Z,96.32
2017-09-10T07:00:54.031Z,96.40
2017-09-10T07:03:28.776Z,96.31
2017-09-10T07:06:03.825Z,96.14
2017-09-10T07:08:38.749Z,95.45
2017-09-10T07:11:13.764Z,95.11
2017-09-10T07:13:48.981Z,95.17
2017-09-10T07:16:23.837Z,95.37
2017-09-10T07:18:58.913Z,94.54
2017-09-10T07:21:33.922Z,94.13
2017-09-10T07:24:08.444Z,94.33
2017-09-10T07:26:43.292Z,93.82
2017-09-10T07:29:18.524Z,93.79
2017-09-10T07:31:54.204Z,93.57
2017-09-10T07:34:29.201Z,93.53
2017-09-10T07:37:04.292Z,92.98
2017-09-10T07:39:39.288Z,92.67
2017-09-10T07:42:14.149Z,92.76
2017-09-10T07:44:48.991Z,92.21
2017-09-10T07:47:24.059Z,91.83
2017-09-10T07:49:58.495Z,90.60
2017-09-10T07:52:33.295Z,88.32
2017-09-10T07:55:07.834Z,87.72
2017-09-10T07:57:42.945Z,87.14
2017-09-10T08:00:17.988Z,87.18
2017-09-10T08:02:52.889Z,85.22
2017-09-10T08:05:27.710Z,84.56
2017-09-10T08:08:03.463Z,85.25
2017-09-10T08:10:38.429Z,84.97
2017-09-10T08:13:12.841Z,84.81
2017-09-10T08:15:47.443Z,83.09
2017-09-10T08:18:22.476Z,83.52
2017-09-10T08:20:57.432Z,83.19
2017-09-10T08:23:32.223Z,82.16
2017-09-10T08:26:07.667Z,82.32
2017-09-10T08:28:42.115Z,82.27
2017-09-10T08:31:17.124Z,82.61
2017-09-10T08:33:51.889Z,81.72
2017-09-10T08:36:26.592Z,81.32
2017-09-10T08:39:01.481Z,80.80
2017-09-10T08:41:36.437Z,82.11
2017-09-10T08:44:11.644Z,81.51
2017-09-10T08:46:46.476Z,80.90
2017-09-10T08:49:21.205Z,80.23
2017-09-10T08:51:56.504Z,79.80
2017-09-10T08:54:31.553Z,79.01
2017-09-10T08:57:06.460Z,79.22
2017-09-10T08:59:41.245Z,78.25
2017-09-10T09:02:16.272Z,76.97
2017-09-10T09:04:51.496Z,78.21
2017-09-10T09:07:26.453Z,75.28
2017-09-10T09:10:01.378Z,75.69
2017-09-10T09:12:36.572Z,74.59
2017-09-10T09:15:11.280Z,73.18
2017-09-10T09:17:46.232Z,73.24
2017-09-10T09:20:21.280Z,72.97
2017-09-10T09:22:56.397Z,73.62
2017-09-10T09:25:31.400Z,72.61
2017-09-10T09:28:06.279Z,71.79
2017-09-10T09:30:41.237Z,72.01
2017-09-10T09:33:16.188Z,72.35
2017-09-10T09:35:51.237Z,72.99
2017-09-10T09:38:26.035Z,71.99
2017-09-10T09:41:01.065Z,74.64
2017-09-10T09:43:36.019Z,74.59
2017-09-10T09:46:11.219Z,74.02
2017-09-10T09:48:45.854Z,73.87
2017-09-10T09:51:20.716Z,73.95
2017-09-10T09:53:54.930Z,72.16
2017-09-10T09:56:29.992Z,70.08
2017-09-10T09:59:05.103Z,69.88
2017-09-10T10:01:39.868Z,71.33
2017-09-10T10:04:14.753Z,70.98
2017-09-10T10:06:49.524Z,70.03
2017-09-10T10:09:24.240Z,69.36
2017-09-10T10:11:59.603Z,71.29
2017-09-10T10:14:34.332Z,70.09
2017-09-10T10:17:09.167Z,69.38
2017-09-10T10:19:44.048Z,67.28
2017-09-10T10:22:18.477Z,66.48
2017-09-10T10:24:53.278Z,66.32
2017-09-10T10:27:28.036Z,66.87
2017-09-10T10:30:03.261Z,66.95
2017-09-10T10:32:37.980Z,67.27
2017-09-10T10:35:12.821Z,66.50
2017-09-10T10:37:47.868Z,66.90
2017-09-10T10:40:22.991Z,66.16
2017-09-10T10:42:58.037Z,65.22
2017-09-10T10:45:33.080Z,63.16
2017-09-10T10:48:08.416Z,62.18
2017-09-10T10:50:43.400Z,63.63
2017-09-10T10:53:18.536Z,64.21
2017-09-10T10:55:53.312Z,66.09
2017-09-10T10:58:28.140Z,64.26
2017-09-10T11:01:03.074Z,62.58
2017-09-10T11:03:38.019Z,63.13
2017-09-10T11:06:12.948Z,61.94
2017-09-10T11:08:47.952Z,62.03
2017-09-10T11:11:22.717Z,61.24
2017-09-10T11:13:57.236Z,60.43
2017-09-10T11:16:31.941Z,59.95
2017-09-10T11:19:06.660Z,60.91
2017-09-10T11:21:41.397Z,59.41
2017-09-10T11:24:16.180Z,58.45
2017-09-10T11:26:51.000Z,58.47
2017-09-10T11:29:25.808Z,57.86
2017-09-10T11:32:00.431Z,58.64
2017-09-10T11:34:35.188Z,58.56
2017-09-10T11:37:10.073Z,58.32
2017-09-10T11:39:44.715Z,60.18
2017-09-10T11:42:19.601Z,59.51
2017-09-10T11:44:54.469Z,59.54
2017-09-10T11:47:29.489Z,60.25
2017-09-10T11:50:04.111Z,60.89
2017-09-10T11:52:38.992Z,61.76
2017-09-10T11:55:13.712Z,62.49
2017-09-10T11:57:48.629Z,62.67
2017-09-10T12:00:23.253Z,62.39
2017-09-10T12:02:58.694Z,61.76
2017-09-10T12:05:33.397Z,61.17
2017-09-10T12:08:08.304Z,61.77
2017-09-10T12:10:43.208Z,62.10
2017-09-10T12:13:18.704Z,61.78
2017-09-10T12:15:53.227Z,63.17
2017-09-10T12:18:28.261Z,62.07
2017-09-10T12:21:04.145Z,62.14
2017-09-10T12:23:38.776Z,60.26
2017-09-10T12:26:13.780Z,60.48
2017-09-10T12:28:48.789Z,60.12
2017-09-10T12:31:23.789Z,57.07
2017-09-10T12:33:58.973Z,55.97
2017-09-10T12:36:33.997Z,54.77
2017-09-10T12:39:08.728Z,53.90
2017-09-10T12:41:43.776Z,54.80
2017-09-10T12:44:18.792Z,55.74
2017-09-10T12:46:53.913Z,55.45
2017-09-10T12:49:28.847Z,55.88
2017-09-10T12:52:03.644Z,54.96
2017-09-10T12:54:38.503Z,53.53
2017-09-10T12:57:13.349Z,54.94
2017-09-10T12:59:47.840Z,54.59
2017-09-10T13:02:22.636Z,53.50
2017-09-10T13:04:57.714Z,54.50
2017-09-10T13:07:32.444Z,54.53
2017-09-10T13:10:07.591Z,54.23
2017-09-10T13:12:42.420Z,54.06
2017-09-10T13:15:17.144Z,52.25
2017-09-10T13:17:51.733Z,53.64
2017-09-10T13:20:26.704Z,54.39
2017-09-10T13:23:01.380Z,52.49
2017-09-10T13:25:36.021Z,53.64
2017-09-10T13:28:10.787Z,55.05
2017-09-10T13:30:45.668Z,55.15
2017-09-10T13:33:20.425Z,55.24
2017-09-10T13:35:55.233Z,56.00
2017-09-10T13:38:30.385Z,56.00
2017-09-10T13:41:04.879Z,56.36
2017-09-10T13:43:39.679Z,55.40
2017-09-10T13:46:14.545Z,55.22
2017-09-10T13:48:49.468Z,55.57
2017-09-10T13:51:24.441Z,55.21
2017-09-10T13:53:59.471Z,55.24
2017-09-10T13:56:34.032Z,52.96
2017-09-10T13:59:09.340Z,51.22
2017-09-10T14:01:44.512Z,52.61
2017-09-10T14:04:20.413Z,53.14
2017-09-10T14:06:55.096Z,53.80
2017-09-10T14:09:29.856Z,54.43
2017-09-10T14:12:04.756Z,54.25
2017-09-10T14:14:39.472Z,55.40
2017-09-10T14:17:14.260Z,55.86
2017-09-10T14:19:49.208Z,56.42
2017-09-10T14:22:24.111Z,57.38
2017-09-10T14:24:58.869Z,57.34
2017-09-10T14:27:33.496Z,54.69
2017-09-10T14:30:08.424Z,55.80
2017-09-10T14:32:43.332Z,56.87
2017-09-10T14:35:17.969Z,56.26
2017-09-10T14:37:52.762Z,56.23
2017-09-10T14:40:27.297Z,55.32
2017-09-10T14:43:01.838Z,55.75
2017-09-10T14:45:36.968Z,55.72
2017-09-10T14:48:11.676Z,55.84
2017-09-10T14:50:46.561Z,55.67
2017-09-10T14:53:21.560Z,56.11
2017-09-10T14:55:56.533Z,56.55
2017-09-10T14:58:31.292Z,55.87
2017-09-10T15:01:06.048Z,56.79
2017-09-10T15:03:40.891Z,56.57
2017-09-10T15:06:15.871Z,56.93
2017-09-10T15:08:50.556Z,57.12
2017-09-10T15:11:25.948Z,58.09
2017-09-10T15:14:01.041Z,57.92
2017-09-10T15:16:36.096Z,57.05
2017-09-10T15:19:10.992Z,58.39
2017-09-10T15:21:45.811Z,57.65
2017-09-10T15:24:20.809Z,57.73
2017-09-10T15:26:55.600Z,58.43
2017-09-10T15:29:30.349Z,58.16
2017-09-10T15:32:05.197Z,58.40
2017-09-10T15:34:40.179Z,58.92
2017-09-10T15:37:15.276Z,56.63
2017-09-10T15:39:49.953Z,57.84
2017-09-10T15:42:24.865Z,57.49
2017-09-10T15:44:59.633Z,57.66
2017-09-10T15:47:34.480Z,58.32
2017-09-10T15:50:09.481Z,58.39
2017-09-10T15:52:44.800Z,58.01
2017-09-10T15:55:19.556Z,58.32
2017-09-10T15:57:54.778Z,58.53
2017-09-10T16:00:29.564Z,57.94
2017-09-10T16:03:04.238Z,58.65
2017-09-10T16:05:39.133Z,58.09
2017-09-10T16:08:14.127Z,57.91
2017-09-10T16:10:48.994Z,57.92
2017-09-10T16:13:23.793Z,58.36
2017-09-10T16:15:58.498Z,58.46
2017-09-10T16:18:33.245Z,59.16
2017-09-10T16:21:08.106Z,59.20
2017-09-10T16:23:44.224Z,58.98
2017-09-10T16:26:18.956Z,59.88
2017-09-10T16:28:53.471Z,59.51
2017-09-10T16:31:28.533Z,59.28
2017-09-10T16:34:03.129Z,60.32
2017-09-10T16:36:38.073Z,60.22
2017-09-10T16:39:12.700Z,60.90
2017-09-10T16:41:47.828Z,61.74
2017-09-10T16:44:22.992Z,61.49
2017-09-10T16:46:58.221Z,60.48
2017-09-10T16:49:32.939Z,60.65
2017-09-10T16:52:07.667Z,61.43
2017-09-10T16:54:42.512Z,61.44
2017-09-10T16:57:18.008Z,62.16
2017-09-10T16:59:52.500Z,61.99
2017-09-10T17:02:27.532Z,61.43
2017-09-10T17:05:02.285Z,62.39
2017-09-10T17:07:36.996Z,62.44
2017-09-10T17:10:11.860Z,62.09
2017-09-10T17:12:46.644Z,62.21
2017-09-10T17:15:21.677Z,62.31
2017-09-10T17:17:56.309Z,62.85
2017-09-10T17:20:31.284Z,63.30
2017-09-10T17:23:05.989Z,63.61
2017-09-10T17:25:40.793Z,62.81
2017-09-10T17:28:15.921Z,63.40
2017-09-10T17:30:50.744Z,62.26
2017-09-10T17:33:25.673Z,63.01
2017-09-10T17:36:00.648Z,63.05
2017-09-10T17:38:35.561Z,63.84
2017-09-10T17:41:10.189Z,64.47
2017-09-10T17:43:45.319Z,64.09
2017-09-10T17:46:20.065Z,64.17
2017-09-10T17:48:54.847Z,64.07
2017-09-10T17:51:29.925Z,64.35
2017-09-10T17:54:04.592Z,64.39
2017-09-10T17:56:39.452Z,65.18
2017-09-10T17:59:14.213Z,64.54
2017-09-10T18:01:49.003Z,64.41
2017-09-10T18:04:23.875Z,64.22
2017-09-10T18:07:00.456Z,64.89
2017-09-10T18:09:35.053Z,65.02
2017-09-10T18:12:09.959Z,65.63
2017-09-10T18:14:45.224Z,65.02
2017-09-10T18:17:19.848Z,66.36
2017-09-10T18:19:54.526Z,66.31
2017-09-10T18:22:29.619Z,65.93
2017-09-10T18:25:04.336Z,66.39
2017-09-10T18:27:39.105Z,66.58
2017-09-10T18:30:14.141Z,67.41
2017-09-10T18:32:48.981Z,67.50
2017-09-10T18:35:23.876Z,67.63
2017-09-10T18:37:58.687Z,66.54
2017-09-10T18:40:33.421Z,67.28
2017-09-10T18:43:08.452Z,67.53
2017-09-10T18:45:43.312Z,67.50
2017-09-10T18:48:18.328Z,68.07
2017-09-10T18:50:52.801Z,68.09
2017-09-10T18:53:27.770Z,67.17
2017-09-10T18:56:02.333Z,68.18
2017-09-10T18:58:37.000Z,67.44
2017-09-10T19:01:11.701Z,67.73
2017-09-10T19:03:46.345Z,67.94
2017-09-10T19:06:21.253Z,67.96
2017-09-10T19:08:56.175Z,68.01
2017-09-10T19:11:30.937Z,68.14
2017-09-10T19:14:05.417Z,68.33
2017-09-10T19:16:40.688Z,68.61
2017-09-10T19:19:16.004Z,68.47
2017-09-10T19:21:50.844Z,68.71
2017-09-10T19:24:25.679Z,67.88
2017-09-10T19:27:00.713Z,68.28
2017-09-10T19:29:35.652Z,68.53
2017-09-10T19:32:10.584Z,68.69
2017-09-10T19:34:45.464Z,68.57
2017-09-10T19:37:20.245Z,68.94
2017-09-10T19:39:55.273Z,69.06
2017-09-10T19:42:29.991Z,69.23
2017-09-10T19:45:04.706Z,69.01
2017-09-10T19:47:39.412Z,69.32
2017-09-10T19:50:14.709Z,69.55
2017-09-10T19:52:49.548Z,69.71
2017-09-10T19:55:24.584Z,69.39
2017-09-10T19:57:59.645Z,69.70
2017-09-10T20:00:34.059Z,70.18
2017-09-10T20:03:08.829Z,70.10
2017-09-10T20:05:43.725Z,70.52
2017-09-10T20:08:18.547Z,70.36
2017-09-10T20:10:53.655Z,70.85
2017-09-10T20:13:28.417Z,71.31
2017-09-10T20:16:03.256Z,71.19
2017-09-10T20:18:37.959Z,71.14
2017-09-10T20:21:12.464Z,71.68
2017-09-10T20:23:47.640Z,71.64
2017-09-10T20:26:22.556Z,71.47
2017-09-10T20:28:57.332Z,71.24
2017-09-10T20:31:32.042Z,71.93
2017-09-10T20:34:07.083Z,71.56
2017-09-10T20:36:41.988Z,71.37
2017-09-10T20:39:16.908Z,71.63
2017-09-10T20:41:51.537Z,71.70
2017-09-10T20:44:26.342Z,71.65
2017-09-10T20:47:01.140Z,71.01
2017-09-10T20:49:36.009Z,70.87
2017-09-10T20:52:10.482Z,71.34
2017-09-10T20:54:45.422Z,71.59
2017-09-10T20:57:20.128Z,71.94
2017-09-10T20:59:55.077Z,71.13
2017-09-10T21:02:29.615Z,71.60
2017-09-10T21:05:04.409Z,72.14
2017-09-10T21:07:40.344Z,72.21
2017-09-10T21:10:15.007Z,72.12
2017-09-10T21:12:50.073Z,72.45
2017-09-10T21:15:24.588Z,72.56
2017-09-10T21:17:59.387Z,72.11
2017-09-10T21:20:34.317Z,72.25
2017-09-10T21:23:08.963Z,72.05
2017-09-10T21:25:43.392Z,72.05
2017-09-10T21:28:17.940Z,72.30
2017-09-10T21:30:52.616Z,72.54
2017-09-10T21:33:27.436Z,72.23
2017-09-10T21:36:02.239Z,72.29
2017-09-10T21:38:37.085Z,72.17
2017-09-10T21:41:12.247Z,71.70
2017-09-10T21:43:47.121Z,71.08
2017-09-10T21:46:21.696Z,71.07
2017-09-10T21:48:56.735Z,71.32
2017-09-10T21:51:31.917Z,71.18
2017-09-10T21:54:06.450Z,71.51
2017-09-10T21:56:41.020Z,71.13
2017-09-10T21:59:16.118Z,71.46
2017-09-10T22:01:50.503Z,71.29
2017-09-10T22:04:25.534Z,71.45
2017-09-10T22:07:00.354Z,71.80
2017-09-10T22:09:35.784Z,71.86
2017-09-10T22:12:10.624Z,71.21
2017-09-10T22:14:45.343Z,71.37
2017-09-10T22:17:20.171Z,71.54
2017-09-10T22:19:54.925Z,71.78
2017-09-10T22:22:29.685Z,71.94
2017-09-10T22:25:04.708Z,72.25
2017-09-10T22:27:39.518Z,71.83
2017-09-10T22:30:14.131Z,72.00
2017-09-10T22:32:48.868Z,71.93
2017-09-10T22:35:23.621Z,72.46
2017-09-10T22:38:41.740Z,72.70
2017-09-10T22:41:17.235Z,73.08
2017-09-10T22:43:51.859Z,73.34
2017-09-10T22:46:26.412Z,73.49
2017-09-10T22:49:01.065Z,73.00
2017-09-10T22:51:35.695Z,73.48
2017-09-10T22:54:10.540Z,73.58
2017-09-10T22:56:45.298Z,73.54
2017-09-10T22:59:20.123Z,73.19
2017-09-10T23:01:55.825Z,73.11
2017-09-10T23:04:30.775Z,73.00
2017-09-10T23:10:10.810Z,72.99
2017-09-10T23:12:45.884Z,73.14
2017-09-10T23:15:20.684Z,72.92
2017-09-10T23:17:55.185Z,73.41
2017-09-10T23:20:30.129Z,72.61
2017-09-10T23:23:04.708Z,72.66
2017-09-10T23:25:39.274Z,72.81
2017-09-10T23:28:14.041Z,73.32
2017-09-10T23:30:49.005Z,73.32
2017-09-10T23:33:23.677Z,73.35
2017-09-10T23:35:58.456Z,73.22
2017-09-10T23:38:33.171Z,73.54
2017-09-10T23:41:08.053Z,73.76
2017-09-10T23:43:42.766Z,74.21
2017-09-10T23:46:17.255Z,73.68
2017-09-10T23:48:52.160Z,73.71
2017-09-10T23:51:26.969Z,73.85
2017-09-10T23:54:01.701Z,73.81
2017-09-10T23:56:36.399Z,73.49
2017-09-10T23:59:11.224Z,73.48
